Darstellungsparameter: Aktuell verwendete Einstellungen:
Skalierung der Graphiken ... ?
xyx+y,   Skalierungsfaktor:      Skalierung: Modus: x, Faktor: 1
Darstellungszeitraum ... ?
Vom - - bis: - -   Zeitraum: 29.01.2016 - 18.02.2016
Min/Max/Avg-Anzeige ... ?
Zeige MMA aktuell
Zeige MMA Monat
Zeige MMA alles
Zeige --A aktuell
Zeige --A Monat
Zeige --A alles
Keine MMA-Anzeige
MMA:
Keine MMA-Graphiken
MMA-Basis: 29.01.2016 - 18.02.2016
Quicknavigation für Darstellung... ?
Tage:      1T, 2T, 3T, 5T -1T -2T -3T -5T +1T +2T +3T +5T
Wochen: 1W, 2W, 3W -1W -2W -3W +1W +2W +3W
Monate: 1M, 3M, 6M -1M -3M -6M +1M +3M +6M
Jahre:    1J, 3J, 5J, 10J -1J -3J -5J -10J +1J +3J +5J +10J
Nutze für die Darstellung ... ?
Originaldaten oder ...
Mittelwerte Minima Maxima auf...
Stundenbasis Tagesbasis Wochenbasis
Monatsbasis Jahresbasis      Datenbasis: Mittelwerte auf Stundenbasis
Darstellen als:
Statistik (Auto) Statistik J:M      Darstellung:
Zur Graphik,    zurück zur Übersicht aller Sensoren.
 
Tabellarische Datenbersicht: ?
 
Sensor: Nr:Datum:Temp:Feuchte:Taupunkt:
Aussen-T/F 1 29-01-2016 00:00:00 1.55 C 95.0000 % 0.84 C
2 29-01-2016 01:00:00 1.19167 C 95.1667 % 0.51 C
3 29-01-2016 02:00:00 0.53333 C 95.0000 % -0.17 C
4 29-01-2016 03:00:00 1.225 C 96.0000 % 0.66 C
5 29-01-2016 04:00:00 1.86667 C 95.0833 % 1.17 C
6 29-01-2016 05:00:00 2.15 C 94.5833 % 1.37 C
7 29-01-2016 06:00:00 3.11667 C 91.7500 % 1.91 C
8 29-01-2016 07:00:00 3.175 C 90.9167 % 1.84 C
9 29-01-2016 08:00:00 3.61667 C 89.9167 % 2.12 C
10 29-01-2016 09:00:00 4.51667 C 87.8333 % 2.68 C
11 29-01-2016 10:00:00 5.35 C 85.9167 % 3.19 C
12 29-01-2016 11:00:00 5.78333 C 84.5000 % 3.38 C
13 29-01-2016 12:00:00 6.55 C 82.5833 % 3.8 C
14 29-01-2016 13:00:00 7.94167 C 78.7500 % 4.49 C
15 29-01-2016 14:00:00 8.325 C 78.0833 % 4.74 C
16 29-01-2016 15:00:00 8.65833 C 78.0000 % 5.04 C
17 29-01-2016 16:00:00 8.99167 C 77.3333 % 5.24 C
18 29-01-2016 17:00:00 9.1 C 77.6667 % 5.41 C
19 29-01-2016 18:00:00 9.00833 C 78.6667 % 5.51 C
20 29-01-2016 19:00:00 8.81667 C 80.0833 % 5.58 C
21 29-01-2016 20:00:00 8.70833 C 81.5833 % 5.74 C
22 29-01-2016 21:00:00 8.48333 C 83.5833 % 5.87 C
23 29-01-2016 22:00:00 8.4 C 84.0000 % 5.86 C
24 29-01-2016 23:00:00 8.44167 C 84.0000 % 5.9 C
25 30-01-2016 00:00:00 8.46667 C 84.7500 % 6.05 C
Sensor: Nr:Datum:Temp:Feuchte:Taupunkt:
Aussen-T/F 26 30-01-2016 01:00:00 8.4 C 85.4167 % 6.1 C
27 30-01-2016 02:00:00 8.45833 C 86.0000 % 6.26 C
28 30-01-2016 03:00:00 8.68333 C 85.4167 % 6.38 C
29 30-01-2016 04:00:00 8.925 C 83.5000 % 6.29 C
30 30-01-2016 05:00:00 9.15833 C 81.6667 % 6.19 C
31 30-01-2016 06:00:00 9.19167 C 81.0000 % 6.11 C
32 30-01-2016 07:00:00 9.09167 C 81.1667 % 6.04 C
33 30-01-2016 08:00:00 8.875 C 82.6667 % 6.09 C
34 30-01-2016 09:00:00 8.55833 C 84.8333 % 6.16 C
35 30-01-2016 10:00:00 8.18 C 87.0000 % 6.15 C
36 30-01-2016 11:00:00 8.17778 C 85.7778 % 5.94 C
37 30-01-2016 12:00:00 8.16667 C 86.4167 % 6.04 C
38 30-01-2016 13:00:00 8.10833 C 87.9167 % 6.23 C
39 30-01-2016 14:00:00 7.95833 C 88.0833 % 6.11 C
40 30-01-2016 15:00:00 7.63333 C 90.2500 % 6.14 C
41 30-01-2016 16:00:00 7.325 C 92.4167 % 6.18 C
42 30-01-2016 17:00:00 6.79167 C 92.2500 % 5.62 C
43 30-01-2016 18:00:00 6.40833 C 90.3333 % 4.94 C
44 30-01-2016 19:00:00 6.04167 C 88.8333 % 4.34 C
45 30-01-2016 20:00:00 5.7 C 88.2500 % 3.91 C
46 30-01-2016 21:00:00 4.56667 C 88.8333 % 2.89 C
47 30-01-2016 22:00:00 3.36667 C 91.2500 % 2.08 C
48 30-01-2016 23:00:00 2.69167 C 91.0833 % 1.39 C
49 31-01-2016 00:00:00 2.41667 C 93.5000 % 1.48 C
50 31-01-2016 01:00:00 2.9 C 92.7500 % 1.85 C
Sensor: Nr:Datum:Temp:Feuchte:Taupunkt:
Aussen-T/F 51 31-01-2016 02:00:00 3.225 C 91.0833 % 1.91 C
52 31-01-2016 03:00:00 3.54167 C 91.5000 % 2.29 C
53 31-01-2016 04:00:00 4.16667 C 90.6667 % 2.78 C
54 31-01-2016 05:00:00 4.225 C 90.9167 % 2.88 C
55 31-01-2016 06:00:00 4.3 C 90.3333 % 2.86 C
56 31-01-2016 07:00:00 3.825 C 91.5000 % 2.57 C
57 31-01-2016 08:00:00 3.88333 C 92.0000 % 2.71 C
58 31-01-2016 09:00:00 4.95 C 89.6667 % 3.4 C
59 31-01-2016 10:00:00 5.7 C 86.6667 % 3.66 C
60 31-01-2016 11:00:00 6.175 C 86.0833 % 4.03 C
61 31-01-2016 12:00:00 6.975 C 85.3333 % 4.69 C
62 31-01-2016 13:00:00 7.55833 C 84.2500 % 5.08 C
63 31-01-2016 14:00:00 7.6 C 84.0000 % 5.07 C
64 31-01-2016 15:00:00 7.63333 C 85.2500 % 5.32 C
65 31-01-2016 16:00:00 7.75 C 86.0000 % 5.56 C
66 31-01-2016 17:00:00 7.85 C 87.4167 % 5.89 C
67 31-01-2016 18:00:00 8.25 C 88.3333 % 6.44 C
68 31-01-2016 19:00:00 8.70833 C 89.7500 % 7.12 C
69 31-01-2016 20:00:00 9.10833 C 90.6667 % 7.67 C
70 31-01-2016 21:00:00 9.85 C 91.2500 % 8.49 C
71 31-01-2016 22:00:00 10.26667 C 92.5833 % 9.12 C
72 31-01-2016 23:00:00 10.80833 C 93.6667 % 9.83 C
73 01-02-2016 00:00:00 11.30833 C 93.1667 % 10.25 C
74 01-02-2016 01:00:00 11.45833 C 94.0000 % 10.53 C
75 01-02-2016 02:00:00 11.76667 C 93.3333 % 10.73 C
Sensor: Nr:Datum:Temp:Feuchte:Taupunkt:
Aussen-T/F 76 01-02-2016 03:00:00 12.33333 C 89.9167 % 10.73 C
77 01-02-2016 04:00:00 12.76667 C 85.9167 % 10.47 C
78 01-02-2016 05:00:00 12.53333 C 86.2500 % 10.3 C
79 01-02-2016 06:00:00 12.175 C 87.8333 % 10.22 C
80 01-02-2016 07:00:00 12.11667 C 87.1667 % 10.05 C
81 01-02-2016 08:00:00 12.08333 C 87.3333 % 10.04 C
82 01-02-2016 09:00:00 11.95833 C 88.6667 % 10.15 C
83 01-02-2016 10:00:00 12.45 C 86.8333 % 10.32 C
84 01-02-2016 11:00:00 12.475 C 86.0000 % 10.2 C
85 01-02-2016 12:00:00 12.41667 C 83.9167 % 9.78 C
86 01-02-2016 13:00:00 12.18333 C 81.8333 % 9.18 C
87 01-02-2016 14:00:00 11.75833 C 79.2500 % 8.29 C
88 01-02-2016 15:00:00 11.75833 C 77.8333 % 8.02 C
89 01-02-2016 16:00:00 11.76667 C 77.2500 % 7.92 C
90 01-02-2016 17:00:00 11.68333 C 77.3333 % 7.85 C
91 01-02-2016 18:00:00 11.69167 C 77.2500 % 7.85 C
92 01-02-2016 19:00:00 11.69167 C 78.7500 % 8.13 C
93 01-02-2016 20:00:00 11.61667 C 78.5000 % 8.01 C
94 01-02-2016 21:00:00 11.79167 C 78.5000 % 8.18 C
95 01-02-2016 22:00:00 11.45833 C 81.9167 % 8.48 C
96 01-02-2016 23:00:00 10.91667 C 86.8333 % 8.81 C
97 02-02-2016 00:00:00 10.825 C 88.0000 % 8.92 C
98 02-02-2016 01:00:00 11.04167 C 87.2500 % 9.01 C
99 02-02-2016 02:00:00 11.3 C 86.1667 % 9.07 C
100 02-02-2016 03:00:00 11.33333 C 86.0000 % 9.08 C
Sensor: Nr:Datum:Temp:Feuchte:Taupunkt:
Aussen-T/F 101 02-02-2016 04:00:00 11.38333 C 85.7500 % 9.08 C
102 02-02-2016 05:00:00 11.425 C 85.3333 % 9.05 C
103 02-02-2016 06:00:00 11.43333 C 85.5833 % 9.11 C
104 02-02-2016 07:00:00 11.34167 C 85.7500 % 9.04 C
105 02-02-2016 08:00:00 11.55 C 84.6667 % 9.06 C
106 02-02-2016 09:00:00 11.73333 C 84.0000 % 9.12 C
107 02-02-2016 10:00:00 11.71667 C 85.0833 % 9.3 C
108 02-02-2016 11:00:00 11.99167 C 85.0000 % 9.55 C
109 02-02-2016 12:00:00 12.35833 C 83.5833 % 9.66 C
110 02-02-2016 13:00:00 12.31667 C 83.4167 % 9.59 C
111 02-02-2016 14:00:00 12.30833 C 82.8333 % 9.48 C
112 02-02-2016 15:00:00 12.39167 C 82.3333 % 9.47 C
113 02-02-2016 16:00:00 11.95833 C 84.2500 % 9.39 C
114 02-02-2016 17:00:00 8.95 C 90.3333 % 7.45 C
115 02-02-2016 18:00:00 7.925 C 93.8333 % 6.99 C
116 02-02-2016 19:00:00 7.64167 C 93.0000 % 6.58 C
117 02-02-2016 20:00:00 7.44167 C 88.5000 % 5.67 C
118 02-02-2016 21:00:00 6.8 C 88.9167 % 5.1 C
119 02-02-2016 22:00:00 6.45 C 90.5000 % 5.01 C
120 02-02-2016 23:00:00 5.99167 C 89.1667 % 4.35 C
121 03-02-2016 00:00:00 6.06667 C 88.0000 % 4.23 C
122 03-02-2016 01:00:00 5.78333 C 89.3333 % 4.17 C
123 03-02-2016 02:00:00 5.81667 C 87.9167 % 3.97 C
124 03-02-2016 03:00:00 5.78333 C 87.1667 % 3.82 C
125 03-02-2016 04:00:00 5.43333 C 88.4167 % 3.68 C
Sensor: Nr:Datum:Temp:Feuchte:Taupunkt:
Aussen-T/F 126 03-02-2016 05:00:00 5.69167 C 84.9167 % 3.36 C
127 03-02-2016 06:00:00 4.90833 C 88.5833 % 3.19 C
128 03-02-2016 07:00:00 4.99167 C 89.0000 % 3.33 C
129 03-02-2016 08:00:00 5.19167 C 88.2500 % 3.41 C
130 03-02-2016 09:00:00 5.76667 C 88.1667 % 3.96 C
131 03-02-2016 10:00:00 5.8 C 87.4167 % 3.88 C
132 03-02-2016 11:00:00 5.75 C 86.0000 % 3.6 C
133 03-02-2016 12:00:00 3.76667 C 92.4167 % 2.65 C
134 03-02-2016 13:00:00 4.3 C 94.0000 % 3.42 C
135 03-02-2016 14:00:00 4.85 C 90.8333 % 3.48 C
136 03-02-2016 15:00:00 5.675 C 77.1667 % 2 C
137 03-02-2016 16:00:00 5.75833 C 72.0833 % 1.13 C
138 03-02-2016 17:00:00 5.175 C 73.2500 % 0.79 C
139 03-02-2016 18:00:00 4.65833 C 78.0000 % 1.16 C
140 03-02-2016 19:00:00 4.69167 C 77.3333 % 1.07 C
141 03-02-2016 20:00:00 4.61667 C 81.1667 % 1.67 C
142 03-02-2016 21:00:00 4.45 C 84.0000 % 1.99 C
143 03-02-2016 22:00:00 4.2 C 85.5000 % 1.99 C
144 03-02-2016 23:00:00 4.30833 C 84.3333 % 1.91 C
145 04-02-2016 00:00:00 4.41667 C 83.0833 % 1.8 C
146 04-02-2016 01:00:00 4.375 C 83.2500 % 1.79 C
147 04-02-2016 02:00:00 4.04167 C 85.0000 % 1.75 C
148 04-02-2016 03:00:00 3.79167 C 87.1667 % 1.86 C
149 04-02-2016 04:00:00 3.49167 C 91.0833 % 2.18 C
150 04-02-2016 05:00:00 3.11667 C 92.4167 % 2.01 C
Sensor: Nr:Datum:Temp:Feuchte:Taupunkt:
Aussen-T/F 151 04-02-2016 06:00:00 2.5 C 93.0000 % 1.49 C
152 04-02-2016 07:00:00 2.39167 C 93.4167 % 1.44 C
153 04-02-2016 08:00:00 3.44167 C 89.0000 % 1.8 C
154 04-02-2016 09:00:00 4.01667 C 87.2500 % 2.09 C
155 04-02-2016 10:00:00 4.49167 C 86.9167 % 2.51 C
156 04-02-2016 11:00:00 4.69167 C 89.5833 % 3.13 C
157 04-02-2016 12:00:00 4.35 C 91.8333 % 3.14 C
158 04-02-2016 13:00:00 4.30833 C 92.6667 % 3.23 C
159 04-02-2016 14:00:00 4.4 C 93.0000 % 3.37 C
160 04-02-2016 15:00:00 4.75833 C 92.0833 % 3.58 C
161 04-02-2016 16:00:00 5.45833 C 92.0000 % 4.27 C
162 04-02-2016 17:00:00 5.71667 C 93.6667 % 4.78 C
163 04-02-2016 18:00:00 6.13333 C 95.1667 % 5.42 C
164 04-02-2016 19:00:00 6.61667 C 93.9167 % 5.71 C
165 04-02-2016 20:00:00 6.65833 C 92.1667 % 5.48 C
166 04-02-2016 21:00:00 6.36667 C 93.0000 % 5.32 C
167 04-02-2016 22:00:00 5.91667 C 94.0000 % 5.03 C
168 04-02-2016 23:00:00 5.45833 C 92.5000 % 4.34 C
169 05-02-2016 00:00:00 4.825 C 92.9167 % 3.78 C
170 05-02-2016 01:00:00 4.45833 C 94.0000 % 3.58 C
171 05-02-2016 02:00:00 4.16667 C 94.0000 % 3.29 C
172 05-02-2016 03:00:00 3.94167 C 95.0000 % 3.22 C
173 05-02-2016 04:00:00 3.84167 C 95.0000 % 3.12 C
174 05-02-2016 05:00:00 3.675 C 95.0000 % 2.95 C
175 05-02-2016 06:00:00 3.825 C 95.7500 % 3.21 C
Sensor: Nr:Datum:Temp:Feuchte:Taupunkt:
Aussen-T/F 176 05-02-2016 07:00:00 4.45 C 96.0000 % 3.87 C
177 05-02-2016 08:00:00 5.24167 C 96.2500 % 4.69 C
178 05-02-2016 09:00:00 5.68333 C 96.2500 % 5.13 C
179 05-02-2016 10:00:00 6.86667 C 96.7500 % 6.39 C
180 05-02-2016 11:00:00 8.1 C 94.7500 % 7.31 C
181 05-02-2016 12:00:00 9.125 C 92.3333 % 7.95 C
182 05-02-2016 13:00:00 9.925 C 89.5833 % 8.3 C
183 05-02-2016 14:00:00 10.64167 C 87.0833 % 8.58 C
184 05-02-2016 15:00:00 10.85 C 85.4167 % 8.5 C
185 05-02-2016 16:00:00 10.8 C 85.0000 % 8.38 C
186 05-02-2016 17:00:00 10.56667 C 85.0833 % 8.17 C
187 05-02-2016 18:00:00 10.24167 C 85.9167 % 7.99 C
188 05-02-2016 19:00:00 10.00833 C 86.0000 % 7.78 C
189 05-02-2016 20:00:00 9.85 C 86.0000 % 7.62 C
190 05-02-2016 21:00:00 9.525 C 88.0833 % 7.65 C
191 05-02-2016 22:00:00 9.2 C 89.6667 % 7.59 C
192 05-02-2016 23:00:00 9.25 C 89.0000 % 7.53 C
193 06-02-2016 00:00:00 9.10833 C 89.1667 % 7.42 C
194 06-02-2016 01:00:00 9.09167 C 87.9167 % 7.2 C
195 06-02-2016 02:00:00 8.85833 C 88.1667 % 7.01 C
196 06-02-2016 03:00:00 7.83333 C 89.4167 % 6.2 C
197 06-02-2016 04:00:00 6.3 C 92.3333 % 5.15 C
198 06-02-2016 05:00:00 5.61667 C 93.7500 % 4.69 C
199 06-02-2016 06:00:00 5.325 C 94.5000 % 4.52 C
200 06-02-2016 07:00:00 5.35 C 95.0000 % 4.62 C
Sensor: Nr:Datum:Temp:Feuchte:Taupunkt:
Aussen-T/F 201 06-02-2016 08:00:00 5.55 C 95.4167 % 4.88 C
202 06-02-2016 09:00:00 6.96667 C 94.6667 % 6.17 C
203 06-02-2016 10:00:00 7.30833 C 93.0000 % 6.25 C
204 06-02-2016 11:00:00 9.31667 C 88.9167 % 7.59 C
205 06-02-2016 12:00:00 11.51667 C 77.0833 % 7.65 C
206 06-02-2016 13:00:00 11.61667 C 73.5833 % 7.06 C
207 06-02-2016 14:00:00 11.48333 C 76.6667 % 7.53 C
208 06-02-2016 15:00:00 12.30833 C 72.4167 % 7.5 C
209 06-02-2016 16:00:00 11.50833 C 74.9167 % 7.22 C
210 06-02-2016 17:00:00 9.41667 C 81.1667 % 6.36 C
211 06-02-2016 18:00:00 7.98333 C 84.2500 % 5.49 C
212 06-02-2016 19:00:00 7.95 C 85.1667 % 5.62 C
213 06-02-2016 20:00:00 8.26667 C 85.1667 % 5.93 C
214 06-02-2016 21:00:00 7.425 C 87.9167 % 5.56 C
215 06-02-2016 22:00:00 7.10833 C 88.8333 % 5.39 C
216 06-02-2016 23:00:00 7.625 C 86.7500 % 5.56 C
217 07-02-2016 00:00:00 8.58333 C 82.3333 % 5.75 C
218 07-02-2016 01:00:00 8.71667 C 81.2500 % 5.69 C
219 07-02-2016 02:00:00 8.61667 C 81.5000 % 5.63 C
220 07-02-2016 03:00:00 8.25833 C 82.3333 % 5.43 C
221 07-02-2016 04:00:00 8.15833 C 82.8333 % 5.42 C
222 07-02-2016 05:00:00 8.66667 C 81.0833 % 5.61 C
223 07-02-2016 06:00:00 10.29167 C 74.5833 % 5.98 C
224 07-02-2016 07:00:00 10.74167 C 73.5833 % 6.22 C
225 07-02-2016 08:00:00 10.74167 C 74.6667 % 6.43 C
Sensor: Nr:Datum:Temp:Feuchte:Taupunkt:
Aussen-T/F 226 07-02-2016 09:00:00 11.05833 C 76.9167 % 7.17 C
227 07-02-2016 10:00:00 10.7 C 81.9167 % 7.74 C
228 07-02-2016 11:00:00 10.31667 C 79.5000 % 6.93 C
229 07-02-2016 12:00:00 10.39167 C 79.0000 % 6.91 C
230 07-02-2016 13:00:00 10.59167 C 77.9167 % 6.91 C
231 07-02-2016 14:00:00 10.275 C 74.3333 % 5.92 C
232 07-02-2016 15:00:00 9.9 C 71.6667 % 5.03 C
233 07-02-2016 16:00:00 9.475 C 70.0000 % 4.29 C
234 07-02-2016 17:00:00 8.95833 C 70.6667 % 3.93 C
235 07-02-2016 18:00:00 8.51667 C 72.9167 % 3.95 C
236 07-02-2016 19:00:00 7.9 C 74.0833 % 3.58 C
237 07-02-2016 20:00:00 7.6 C 75.5833 % 3.57 C
238 07-02-2016 21:00:00 7.63333 C 75.0000 % 3.49 C
239 07-02-2016 22:00:00 7.74167 C 74.5833 % 3.52 C
240 07-02-2016 23:00:00 7.625 C 75.0000 % 3.48 C
241 08-02-2016 00:00:00 7.7 C 75.5000 % 3.65 C
242 08-02-2016 01:00:00 7.38333 C 76.8333 % 3.59 C
243 08-02-2016 02:00:00 7.44167 C 76.5000 % 3.59 C
244 08-02-2016 03:00:00 7.525 C 75.5833 % 3.5 C
245 08-02-2016 04:00:00 8.05833 C 76.6667 % 4.22 C
246 08-02-2016 05:00:00 8.55833 C 78.0833 % 4.96 C
247 08-02-2016 06:00:00 8.85 C 78.5833 % 5.34 C
248 08-02-2016 07:00:00 9.06667 C 82.0000 % 6.16 C
249 08-02-2016 08:00:00 9.825 C 79.3333 % 6.42 C
250 08-02-2016 09:00:00 9.86667 C 80.9167 % 6.75 C
Sensor: Nr:Datum:Temp:Feuchte:Taupunkt:
Aussen-T/F 251 08-02-2016 10:00:00 9.375 C 87.2500 % 7.37 C
252 08-02-2016 11:00:00 8.21667 C 92.3333 % 7.05 C
253 08-02-2016 12:00:00 6.825 C 93.0000 % 5.77 C
254 08-02-2016 13:00:00 6.775 C 94.4167 % 5.94 C
255 08-02-2016 14:00:00 7.425 C 91.8333 % 6.19 C
256 08-02-2016 15:00:00 7.84167 C 86.4167 % 5.72 C
257 08-02-2016 16:00:00 8.19167 C 81.9167 % 5.29 C
258 08-02-2016 17:00:00 7.88333 C 80.0833 % 4.67 C
259 08-02-2016 18:00:00 7.75 C 77.6667 % 4.1 C
260 08-02-2016 19:00:00 7.525 C 77.5000 % 3.85 C
261 08-02-2016 20:00:00 7.73333 C 74.6667 % 3.53 C
262 08-02-2016 21:00:00 8.05833 C 71.1667 % 3.16 C
263 08-02-2016 22:00:00 8.24167 C 70.5000 % 3.2 C
264 08-02-2016 23:00:00 8.05833 C 71.2500 % 3.18 C
265 09-02-2016 00:00:00 7.65 C 74.8333 % 3.48 C
266 09-02-2016 01:00:00 7.625 C 76.0000 % 3.67 C
267 09-02-2016 02:00:00 7.41667 C 77.5000 % 3.75 C
268 09-02-2016 03:00:00 6.65833 C 82.1667 % 3.84 C
269 09-02-2016 04:00:00 6.49167 C 85.5000 % 4.24 C
270 09-02-2016 05:00:00 6.65833 C 85.9167 % 4.47 C
271 09-02-2016 06:00:00 6.225 C 88.5833 % 4.48 C
272 09-02-2016 07:00:00 6.68333 C 83.2500 % 4.05 C
273 09-02-2016 08:00:00 7.26667 C 79.9167 % 4.04 C
274 09-02-2016 09:00:00 7.39167 C 80.6667 % 4.29 C
275 09-02-2016 10:00:00 7.48333 C 86.5833 % 5.39 C
Sensor: Nr:Datum:Temp:Feuchte:Taupunkt:
Aussen-T/F 276 09-02-2016 11:00:00 6.975 C 93.0833 % 5.94 C
277 09-02-2016 12:00:00 7.29167 C 93.9167 % 6.38 C
278 09-02-2016 13:00:00 8.96667 C 94.3333 % 8.11 C
279 09-02-2016 14:00:00 9.76667 C 87.0000 % 7.71 C
280 09-02-2016 15:00:00 9.13333 C 88.5000 % 7.34 C
281 09-02-2016 16:00:00 8.64167 C 91.6667 % 7.36 C
282 09-02-2016 17:00:00 8.3 C 93.5000 % 7.31 C
283 09-02-2016 18:00:00 8.06667 C 91.0833 % 6.7 C
284 09-02-2016 19:00:00 5.90833 C 88.5000 % 4.16 C
285 09-02-2016 20:00:00 5.24167 C 85.1667 % 2.96 C
286 09-02-2016 21:00:00 5 C 85.2500 % 2.74 C
287 09-02-2016 22:00:00 5.06667 C 85.7500 % 2.88 C
288 09-02-2016 23:00:00 4.75 C 83.6667 % 2.23 C
289 10-02-2016 00:00:00 4.6 C 83.7500 % 2.09 C
290 10-02-2016 01:00:00 3.79167 C 85.8333 % 1.64 C
291 10-02-2016 02:00:00 3.66667 C 86.6667 % 1.66 C
292 10-02-2016 03:00:00 4.08333 C 85.5833 % 1.89 C
293 10-02-2016 04:00:00 3.95 C 86.8333 % 1.96 C
294 10-02-2016 05:00:00 4.51667 C 82.5833 % 1.82 C
295 10-02-2016 06:00:00 4.65 C 80.3333 % 1.56 C
296 10-02-2016 07:00:00 4.55 C 80.6667 % 1.52 C
297 10-02-2016 08:00:00 4.2 C 85.0000 % 1.91 C
298 10-02-2016 09:00:00 4.58333 C 84.0000 % 2.12 C
299 10-02-2016 10:00:00 4.7 C 83.3333 % 2.12 C
300 10-02-2016 11:00:00 4.70833 C 84.4167 % 2.31 C
Sensor: Nr:Datum:Temp:Feuchte:Taupunkt:
Aussen-T/F 301 10-02-2016 12:00:00 4.80833 C 85.5000 % 2.59 C
302 10-02-2016 13:00:00 5.375 C 85.5833 % 3.16 C
303 10-02-2016 14:00:00 5.80833 C 84.5000 % 3.4 C
304 10-02-2016 15:00:00 6.08333 C 83.8333 % 3.56 C
305 10-02-2016 16:00:00 6.15833 C 83.3333 % 3.55 C
306 10-02-2016 17:00:00 5.96667 C 83.8333 % 3.45 C
307 10-02-2016 18:00:00 5.575 C 84.4167 % 3.16 C
308 10-02-2016 19:00:00 5.13333 C 87.1667 % 3.18 C
309 10-02-2016 20:00:00 5.15 C 87.3333 % 3.22 C
310 10-02-2016 21:00:00 5.20833 C 87.9167 % 3.37 C
311 10-02-2016 22:00:00 4.80833 C 90.0833 % 3.32 C
312 10-02-2016 23:00:00 4.7 C 91.0833 % 3.37 C
313 11-02-2016 00:00:00 4.625 C 91.5000 % 3.36 C
314 11-02-2016 01:00:00 4.09167 C 91.4167 % 2.82 C
315 11-02-2016 02:00:00 3.725 C 92.0833 % 2.56 C
316 11-02-2016 03:00:00 4.05 C 90.5000 % 2.64 C
317 11-02-2016 04:00:00 3.91667 C 90.8333 % 2.56 C
318 11-02-2016 05:00:00 4.10833 C 89.7500 % 2.58 C
319 11-02-2016 06:00:00 3.38333 C 91.3333 % 2.11 C
320 11-02-2016 07:00:00 3.7 C 91.0833 % 2.38 C
321 11-02-2016 08:00:00 4.04167 C 90.6667 % 2.66 C
322 11-02-2016 09:00:00 4.31667 C 90.7500 % 2.94 C
323 11-02-2016 10:00:00 5.125 C 89.3333 % 3.52 C
324 11-02-2016 11:00:00 6.05 C 84.5000 % 3.64 C
325 11-02-2016 12:00:00 6.15833 C 83.0833 % 3.51 C
Sensor: Nr:Datum:Temp:Feuchte:Taupunkt:
Aussen-T/F 326 11-02-2016 13:00:00 6.9 C 78.7500 % 3.47 C
327 11-02-2016 14:00:00 7.43333 C 77.0000 % 3.67 C
328 11-02-2016 15:00:00 7.78333 C 75.4167 % 3.72 C
329 11-02-2016 16:00:00 6.225 C 81.9167 % 3.37 C
330 11-02-2016 17:00:00 5.40833 C 82.3333 % 2.65 C
331 11-02-2016 18:00:00 4.75833 C 85.6667 % 2.57 C
332 11-02-2016 19:00:00 4.66667 C 88.5000 % 2.93 C
333 11-02-2016 20:00:00 4.625 C 88.2500 % 2.85 C
334 11-02-2016 21:00:00 4.25 C 89.9167 % 2.75 C
335 11-02-2016 22:00:00 4.14167 C 90.0833 % 2.67 C
336 11-02-2016 23:00:00 3.98333 C 89.7500 % 2.46 C
337 12-02-2016 00:00:00 3.49167 C 91.0000 % 2.16 C
338 12-02-2016 01:00:00 3.16667 C 91.4167 % 1.91 C
339 12-02-2016 02:00:00 2.99167 C 90.8333 % 1.64 C
340 12-02-2016 03:00:00 2.5 C 91.7500 % 1.3 C
341 12-02-2016 04:00:00 1.85833 C 92.0000 % 0.7 C
342 12-02-2016 05:00:00 2.475 C 91.9167 % 1.3 C
343 12-02-2016 06:00:00 2.725 C 90.0833 % 1.27 C
344 12-02-2016 07:00:00 2.93333 C 86.9167 % 0.97 C
345 12-02-2016 08:00:00 2.85 C 84.5833 % 0.52 C
346 12-02-2016 09:00:00 3.03333 C 83.6667 % 0.55 C
347 12-02-2016 10:00:00 3.08333 C 85.5833 % 0.91 C
348 12-02-2016 11:00:00 4.18333 C 81.6667 % 1.34 C
349 12-02-2016 12:00:00 4.74167 C 79.6667 % 1.54 C
350 12-02-2016 13:00:00 4.95833 C 77.1667 % 1.3 C
Sensor: Nr:Datum:Temp:Feuchte:Taupunkt:
Aussen-T/F 351 12-02-2016 14:00:00 5.29167 C 74.1667 % 1.07 C
352 12-02-2016 15:00:00 5.4 C 73.1667 % 0.99 C
353 12-02-2016 16:00:00 5.06667 C 75.8333 % 1.17 C
354 12-02-2016 17:00:00 3.50833 C 83.2500 % 0.94 C
355 12-02-2016 18:00:00 2.63333 C 86.5833 % 0.63 C
356 12-02-2016 19:00:00 1.93333 C 88.9167 % 0.3 C
357 12-02-2016 20:00:00 1.6 C 89.4167 % 0.05 C
358 12-02-2016 21:00:00 1.1 C 90.9167 % -0.21 C
359 12-02-2016 22:00:00 0.70833 C 91.7500 % -0.48 C
360 12-02-2016 23:00:00 0.525 C 91.3333 % -0.72 C
361 13-02-2016 00:00:00 0.06667 C 92.2500 % -1.04 C
362 13-02-2016 01:00:00 -0.24167 C 92.8333 % -1.26 C
363 13-02-2016 02:00:00 -0.89167 C 93.3333 % -1.83 C
364 13-02-2016 03:00:00 -1.3 C 94.0000 % -2.14 C
365 13-02-2016 04:00:00 -1.675 C 94.3333 % -2.46 C
366 13-02-2016 05:00:00 -1.725 C 95.0000 % -2.42 C
367 13-02-2016 06:00:00 -1.825 C 95.0000 % -2.52 C
368 13-02-2016 07:00:00 -1.2 C 96.0000 % -1.75 C
369 13-02-2016 08:00:00 -0.675 C 96.0000 % -1.23 C
370 13-02-2016 09:00:00 0.05 C 96.0000 % -0.51 C
371 13-02-2016 10:00:00 1.05833 C 95.7500 % 0.46 C
372 13-02-2016 11:00:00 2.975 C 89.5833 % 1.44 C
373 13-02-2016 12:00:00 4.03333 C 85.0833 % 1.76 C
374 13-02-2016 13:00:00 4.375 C 85.1667 % 2.11 C
375 13-02-2016 14:00:00 4.25 C 88.2500 % 2.48 C
Sensor: Nr:Datum:Temp:Feuchte:Taupunkt:
Aussen-T/F 376 13-02-2016 15:00:00 3.85 C 91.0833 % 2.53 C
377 13-02-2016 16:00:00 3.24167 C 93.7500 % 2.33 C
378 13-02-2016 17:00:00 3.09167 C 95.0000 % 2.37 C
379 13-02-2016 18:00:00 2.9 C 95.0000 % 2.18 C
380 13-02-2016 19:00:00 3.04167 C 95.9167 % 2.46 C
381 13-02-2016 20:00:00 3.125 C 96.0000 % 2.55 C
382 13-02-2016 21:00:00 3.59167 C 96.2500 % 3.05 C
383 13-02-2016 22:00:00 3.775 C 96.9167 % 3.33 C
384 13-02-2016 23:00:00 3.8 C 97.0000 % 3.37 C
385 14-02-2016 00:00:00 3.93333 C 97.0000 % 3.5 C
386 14-02-2016 01:00:00 4.08333 C 97.0000 % 3.65 C
387 14-02-2016 02:00:00 4.11667 C 97.0000 % 3.68 C
388 14-02-2016 03:00:00 4.25833 C 97.0000 % 3.83 C
389 14-02-2016 04:00:00 4.175 C 97.0000 % 3.74 C
390 14-02-2016 05:00:00 4.49167 C 97.0000 % 4.06 C
391 14-02-2016 06:00:00 4.70833 C 97.0000 % 4.27 C
392 14-02-2016 07:00:00 4.75 C 97.0000 % 4.32 C
393 14-02-2016 08:00:00 4.9 C 97.0000 % 4.46 C
394 14-02-2016 09:00:00 5.19167 C 97.0000 % 4.76 C
395 14-02-2016 10:00:00 5.11667 C 97.0000 % 4.68 C
396 14-02-2016 11:00:00 5.38333 C 96.8333 % 4.92 C
397 14-02-2016 12:00:00 5.59167 C 94.6667 % 4.81 C
398 14-02-2016 13:00:00 5.71667 C 89.0000 % 4.05 C
399 14-02-2016 14:00:00 5.51667 C 90.8333 % 4.14 C
400 14-02-2016 15:00:00 5.48333 C 88.3333 % 3.71 C
Sensor: Nr:Datum:Temp:Feuchte:Taupunkt:
Aussen-T/F 401 14-02-2016 16:00:00 5.24167 C 90.8333 % 3.87 C
402 14-02-2016 17:00:00 4.74167 C 93.1667 % 3.73 C
403 14-02-2016 18:00:00 4.43333 C 94.0000 % 3.55 C
404 14-02-2016 19:00:00 4.39167 C 94.4167 % 3.58 C
405 14-02-2016 20:00:00 4.08333 C 95.0000 % 3.36 C
406 14-02-2016 21:00:00 3.9 C 96.0000 % 3.32 C
407 14-02-2016 22:00:00 3.84167 C 95.8333 % 3.24 C
408 14-02-2016 23:00:00 3.54167 C 93.9167 % 2.66 C
409 15-02-2016 00:00:00 3.33333 C 92.9167 % 2.3 C
410 15-02-2016 01:00:00 3.00833 C 92.4167 % 1.9 C
411 15-02-2016 02:00:00 2.73333 C 93.2500 % 1.75 C
412 15-02-2016 03:00:00 2.56667 C 94.0000 % 1.7 C
413 15-02-2016 04:00:00 2.4 C 93.3333 % 1.44 C
414 15-02-2016 05:00:00 2.3 C 93.0000 % 1.29 C
415 15-02-2016 06:00:00 2.23333 C 92.5000 % 1.15 C
416 15-02-2016 07:00:00 2.175 C 92.8333 % 1.14 C
417 15-02-2016 08:00:00 1.94167 C 93.7500 % 1.04 C
418 15-02-2016 09:00:00 1.65833 C 94.7500 % 0.91 C
419 15-02-2016 10:00:00 1.94167 C 95.0000 % 1.23 C
420 15-02-2016 11:00:00 2.60833 C 94.0833 % 1.75 C
421 15-02-2016 12:00:00 2.63333 C 93.0000 % 1.62 C
422 15-02-2016 13:00:00 2.56667 C 92.7500 % 1.51 C
423 15-02-2016 14:00:00 2.50833 C 92.0000 % 1.34 C
424 15-02-2016 15:00:00 2.39167 C 91.6667 % 1.18 C
425 15-02-2016 16:00:00 2.20833 C 92.0000 % 1.05 C
Sensor: Nr:Datum:Temp:Feuchte:Taupunkt:
Aussen-T/F 426 15-02-2016 17:00:00 2.025 C 91.2500 % 0.75 C
427 15-02-2016 18:00:00 1.89167 C 90.6667 % 0.53 C
428 15-02-2016 19:00:00 1.8 C 89.7500 % 0.3 C
429 15-02-2016 20:00:00 1.7 C 88.5833 % 0.02 C
430 15-02-2016 21:00:00 1.6 C 87.7500 % -0.21 C
431 15-02-2016 22:00:00 1.44167 C 86.2500 % -0.6 C
432 15-02-2016 23:00:00 1.2 C 84.2500 % -1.16 C
433 16-02-2016 00:00:00 0.88333 C 83.8333 % -1.53 C
434 16-02-2016 01:00:00 0.55 C 81.7500 % -2.2 C
435 16-02-2016 02:00:00 0.29167 C 81.0833 % -2.56 C
436 16-02-2016 03:00:00 0.25833 C 81.5000 % -2.53 C
437 16-02-2016 04:00:00 0.06667 C 80.5000 % -2.88 C
438 16-02-2016 05:00:00 -0.13333 C 80.5000 % -3.08 C
439 16-02-2016 06:00:00 -0.34167 C 81.0000 % -3.2 C
440 16-02-2016 07:00:00 -0.675 C 82.7500 % -3.24 C
441 16-02-2016 08:00:00 -1.05 C 84.6667 % -3.3 C
442 16-02-2016 09:00:00 -1.1 C 85.6667 % -3.19 C
443 16-02-2016 10:00:00 -0.23333 C 81.5833 % -3 C
444 16-02-2016 11:00:00 0.58333 C 77.4167 % -2.9 C
445 16-02-2016 12:00:00 0.80833 C 77.4167 % -2.68 C
446 16-02-2016 13:00:00 1.91667 C 72.8333 % -2.43 C
447 16-02-2016 14:00:00 2.725 C 70.0833 % -2.17 C
448 16-02-2016 15:00:00 3.1 C 68.5833 % -2.1 C
449 16-02-2016 16:00:00 2.94167 C 73.6667 % -1.29 C
450 16-02-2016 17:00:00 1.21667 C 81.3333 % -1.62 C
Sensor: Nr:Datum:Temp:Feuchte:Taupunkt:
Aussen-T/F 451 16-02-2016 18:00:00 -0.35833 C 85.5000 % -2.49 C
452 16-02-2016 19:00:00 -0.875 C 86.4167 % -2.85 C
453 16-02-2016 20:00:00 -1.13333 C 87.6667 % -2.91 C
454 16-02-2016 21:00:00 -1.44167 C 89.0000 % -3.01 C
455 16-02-2016 22:00:00 -1.79167 C 89.5000 % -3.29 C
456 16-02-2016 23:00:00 -1.45833 C 91.0000 % -2.73 C
457 17-02-2016 00:00:00 -1.29167 C 91.0000 % -2.57 C
458 17-02-2016 01:00:00 -1.84167 C 91.5000 % -3.04 C
459 17-02-2016 02:00:00 -1.75 C 91.2500 % -2.98 C
460 17-02-2016 03:00:00 -1.55 C 91.6667 % -2.73 C
461 17-02-2016 04:00:00 -1.36667 C 91.9167 % -2.51 C
462 17-02-2016 05:00:00 -1.55 C 91.8333 % -2.7 C
463 17-02-2016 06:00:00 -2.175 C 91.9167 % -3.31 C
464 17-02-2016 07:00:00 -2.63333 C 92.7500 % -3.64 C
465 17-02-2016 08:00:00 -2.5 C 93.7500 % -3.37 C
466 17-02-2016 09:00:00 -2.025 C 94.0000 % -2.86 C
467 17-02-2016 10:00:00 -1.225 C 93.2500 % -2.17 C
468 17-02-2016 11:00:00 0.85833 C 88.0000 % -0.9 C
469 17-02-2016 12:00:00 2.54167 C 79.5833 % -0.62 C
470 17-02-2016 13:00:00 3.35833 C 77.1667 % -0.25 C
471 17-02-2016 14:00:00 3.71667 C 75.8333 % -0.14 C
472 17-02-2016 15:00:00 3.5 C 78.3333 % 0.09 C
473 17-02-2016 16:00:00 3.25833 C 83.3333 % 0.71 C
474 17-02-2016 17:00:00 2.65 C 86.5000 % 0.63 C
475 17-02-2016 18:00:00 2.025 C 88.6667 % 0.36 C
Sensor: Nr:Datum:Temp:Feuchte:Taupunkt:
Aussen-T/F 476 17-02-2016 19:00:00 1.675 C 90.5833 % 0.3 C
477 17-02-2016 20:00:00 1.54167 C 91.1667 % 0.26 C
478 17-02-2016 21:00:00 1.54167 C 91.7500 % 0.35 C
479 17-02-2016 22:00:00 1.49167 C 91.0000 % 0.19 C
480 17-02-2016 23:00:00 1.5 C 91.5000 % 0.27 C
481 18-02-2016 00:00:00 1.63333 C 92.0000 % 0.48 C
482 18-02-2016 01:00:00 1.525 C 92.0000 % 0.37 C
483 18-02-2016 02:00:00 1.4 C 93.0000 % 0.4 C
484 18-02-2016 03:00:00 1.4 C 93.1667 % 0.42 C
485 18-02-2016 04:00:00 1.4 C 94.0000 % 0.54 C
486 18-02-2016 05:00:00 1.35833 C 94.0000 % 0.5 C
487 18-02-2016 06:00:00 1.3 C 94.0000 % 0.44 C
488 18-02-2016 07:00:00 1.3 C 93.0000 % 0.3 C
489 18-02-2016 08:00:00 1.45 C 93.0000 % 0.44 C
490 18-02-2016 09:00:00 1.88333 C 93.0000 % 0.87 C
491 18-02-2016 10:00:00 2.50833 C 89.8333 % 1.01 C
492 18-02-2016 11:00:00 3.66667 C 82.3333 % 0.94 C
493 18-02-2016 12:00:00 4.24167 C 72.4167 % -0.27 C
494 18-02-2016 13:00:00 4.76667 C 69.1667 % -0.39 C
495 18-02-2016 14:00:00 5.43333 C 64.5833 % -0.69 C
496 18-02-2016 15:00:00 5.6 C 64.8333 % -0.48 C
497 18-02-2016 16:00:00 4.95 C 70.7500 % 0.09 C
498 18-02-2016 17:00:00 3.3 C 80.2500 % 0.23 C
499 18-02-2016 18:00:00 1.88333 C 84.3333 % -0.47 C
500 18-02-2016 19:00:00 1.26667 C 86.0000 % -0.81 C
Sensor: Nr:Datum:Temp:Feuchte:Taupunkt:
Aussen-T/F 501 18-02-2016 20:00:00 0.33333 C 87.7500 % -1.45 C
502 18-02-2016 21:00:00 -0.55 C 88.0833 % -2.27 C
503 18-02-2016 22:00:00 -0.79167 C 89.3333 % -2.32 C
504 18-02-2016 23:00:00 -0.55 C 90.0000 % -1.98 C

Maximal/Minimal-Werte vom 29.01.2016 - 18.02.2016

Sensor Min Max Avg
Temp
(Aussen-T/F)
-2.8 °C
17-02-2016  07:40:00
12.8 °C
01-02-2016  04:20:00
5.5 °C
Feuchte
(Aussen-T/F)
63 %
18-02-2016  14:20:00
97 %
29-01-2016  03:40:00
86.88 %
Taupunkt
(Aussen-T/F)
-3.64 C
17-02-2016  07:00:00
10.73 C
01-02-2016  02:00:00
3.45 C

Die Daten stammen von einer Davis Vantage Pro 2 Wetter-Station und werden unter Linux mit der Software wview2wettercgi und aufbereitet. Alle Angaben erfolgen ohne Gewähr für ihre Vollständigkeit oder Richtigkeit.
Kontakt: Rainer Krienke krienke@uni-koblenz.de . Meine Webseiten an der Uni Koblenz oder privat.
Version: $Revision: 0.78 $